Time;durP1;ratioP1;P1;durP2;ratioP2;P2;SDS_P1;SDS_P2;PMS_P1;PMS_P2;Temp;Humidity;BMP_temperature;BMP_pressure;BME280_temperature;BME280_humidity;BME280_pressure;Samples;Min_cycle;Max_cycle;Signal;HPM_P1;HPM_P2
2022/12/24 00:01:10;;;;;;;36.17;5.95;;;11.40;99.90;;;;;;4138200;28;20034;-74
2022/12/24 00:03:11;;;;;;;27.98;5.50;;;11.40;99.90;;;;;;4144696;28;20515;-74
2022/12/24 00:05:12;;;;;;;31.27;6.35;;;11.40;99.90;;;;;;4144011;28;20480;-73
2022/12/24 00:07:12;;;;;;;25.13;5.10;;;11.40;99.90;;;;;;4143526;28;20034;-74
2022/12/24 00:09:13;;;;;;;24.38;5.25;;;11.40;99.90;;;;;;4152658;28;20032;-74
2022/12/24 00:11:13;;;;;;;22.08;5.05;;;11.40;99.90;;;;;;4138429;28;20030;-73
2022/12/24 00:13:14;;;;;;;26.50;4.80;;;11.40;99.90;;;;;;4128559;28;20042;-74
2022/12/24 00:15:15;;;;;;;32.88;5.80;;;11.40;99.90;;;;;;4128771;28;20388;-73
2022/12/24 00:17:15;;;;;;;24.20;5.45;;;11.30;99.90;;;;;;4143785;28;20034;-74
2022/12/24 00:19:16;;;;;;;27.27;4.75;;;11.30;99.90;;;;;;4144518;28;20030;-74
2022/12/24 00:21:17;;;;;;;36.53;6.22;;;11.30;99.90;;;;;;4143391;28;20045;-73
2022/12/24 00:23:18;;;;;;;29.15;5.20;;;11.30;99.90;;;;;;4144563;28;20109;-74
2022/12/24 00:25:18;;;;;;;19.27;4.88;;;11.30;99.90;;;;;;4134443;28;20497;-74
2022/12/24 00:27:19;;;;;;;27.42;5.18;;;11.30;99.90;;;;;;4142451;28;20038;-73
2022/12/24 00:29:19;;;;;;;22.55;5.55;;;11.30;99.90;;;;;;4135702;28;20022;-74
2022/12/24 00:31:20;;;;;;;37.13;5.72;;;11.30;99.90;;;;;;4133087;28;20041;-74
2022/12/24 00:33:21;;;;;;;25.15;4.93;;;11.20;99.90;;;;;;4142677;28;20118;-71
2022/12/24 00:35:22;;;;;;;25.00;5.03;;;11.20;99.90;;;;;;4143687;28;20041;-73
2022/12/24 00:37:22;;;;;;;25.63;5.28;;;11.20;99.90;;;;;;4144045;28;20116;-73
2022/12/24 00:39:23;;;;;;;28.10;5.20;;;11.10;99.90;;;;;;4130850;28;20026;-74
2022/12/24 00:41:23;;;;;;;31.40;5.78;;;11.10;99.90;;;;;;4148904;28;20077;-74
2022/12/24 00:43:24;;;;;;;30.45;5.20;;;11.10;99.90;;;;;;4141733;28;20022;-74
2022/12/24 00:45:26;;;;;;;30.67;6.13;;;11.10;99.90;;;;;;4142620;28;20674;-74
2022/12/24 00:47:27;;;;;;;29.40;5.55;;;11.00;99.90;;;;;;4144601;28;20038;-75
2022/12/24 00:49:27;;;;;;;26.40;4.93;;;11.00;99.90;;;;;;4144264;28;20038;-74
2022/12/24 00:51:28;;;;;;;23.40;3.92;;;11.00;99.90;;;;;;4142628;28;20116;-74
2022/12/24 00:53:28;;;;;;;32.40;5.20;;;11.00;99.90;;;;;;4143541;28;20033;-74
2022/12/24 00:55:29;;;;;;;26.52;5.55;;;11.00;99.90;;;;;;4142002;28;20042;-74
2022/12/24 00:57:30;;;;;;;27.13;5.25;;;11.00;99.90;;;;;;4155068;28;20049;-74
2022/12/24 00:59:30;;;;;;;34.42;6.03;;;11.00;99.90;;;;;;4145332;28;20033;-74
2022/12/24 01:01:31;;;;;;;22.23;4.50;;;11.00;99.90;;;;;;4133667;28;20038;-74
2022/12/24 01:03:34;;;;;;;27.25;5.57;;;11.00;99.90;;;;;;4141271;28;20034;-74
2022/12/24 01:05:35;;;;;;;25.48;4.57;;;11.00;99.90;;;;;;4146025;28;20145;-74
2022/12/24 01:07:37;;;;;;;24.25;4.82;;;11.00;99.90;;;;;;4147147;28;20489;-74
2022/12/24 01:09:38;;;;;;;26.98;5.32;;;10.90;99.90;;;;;;4143976;28;20057;-74
2022/12/24 01:11:38;;;;;;;24.52;4.53;;;10.90;99.90;;;;;;4144998;28;20034;-73
2022/12/24 01:13:39;;;;;;;23.52;4.85;;;10.90;99.90;;;;;;4146936;28;20091;-74
2022/12/24 01:15:39;;;;;;;29.52;5.32;;;10.90;99.90;;;;;;4144107;28;20527;-74
2022/12/24 01:17:40;;;;;;;23.67;5.43;;;10.80;99.90;;;;;;4146846;28;20038;-74
2022/12/24 01:19:41;;;;;;;28.83;5.47;;;10.80;99.90;;;;;;4157655;28;20159;-74
2022/12/24 01:21:41;;;;;;;26.63;5.35;;;10.90;99.90;;;;;;4145026;28;20042;-74
2022/12/24 01:23:42;;;;;;;30.52;5.90;;;10.80;99.90;;;;;;4145139;28;20432;-74
2022/12/24 01:25:43;;;;;;;20.27;4.22;;;10.80;99.90;;;;;;4140037;28;20468;-74
2022/12/24 01:27:44;;;;;;;31.15;5.05;;;10.80;99.90;;;;;;4146813;28;20069;-75
2022/12/24 01:29:44;;;;;;;25.33;5.40;;;10.80;99.90;;;;;;4145926;28;20041;-74
2022/12/24 01:31:45;;;;;;;27.67;5.20;;;10.80;99.90;;;;;;4131699;28;20045;-74
2022/12/24 01:33:48;;;;;;;24.75;5.05;;;10.80;99.90;;;;;;4141491;28;20084;-74
2022/12/24 01:35:48;;;;;;;29.33;6.03;;;10.80;99.90;;;;;;4145801;28;20038;-74
2022/12/24 01:37:49;;;;;;;25.65;5.03;;;10.80;99.90;;;;;;4144426;28;20035;-74
2022/12/24 01:39:49;;;;;;;32.58;5.90;;;10.70;99.90;;;;;;4143694;28;20096;-74
2022/12/24 01:44:25;;;;;;;25.20;5.85;;;10.70;99.90;;;;;;4155149;28;20034;-74
2022/12/24 01:46:30;;;;;;;32.17;6.22;;;10.70;99.90;;;;;;4144415;28;20030;-74
2022/12/24 01:48:37;;;;;;;37.20;5.68;;;10.70;99.90;;;;;;4146617;28;20152;-74
2022/12/24 01:50:38;;;;;;;21.60;4.82;;;10.70;99.90;;;;;;4144536;28;20494;-74
2022/12/24 01:52:39;;;;;;;33.90;6.00;;;10.70;99.90;;;;;;4130938;28;20030;-74
2022/12/24 01:54:46;;;;;;;17.77;4.35;;;10.70;99.90;;;;;;4139717;28;20392;-74
2022/12/24 01:56:52;;;;;;;30.20;5.68;;;10.70;99.90;;;;;;4143891;28;20026;-74
2022/12/24 01:58:59;;;;;;;18.75;4.43;;;10.70;99.90;;;;;;4146312;28;20030;-74
2022/12/24 02:00:59;;;;;;;29.88;5.57;;;10.70;99.90;;;;;;4137912;28;20149;-74
2022/12/24 02:03:00;;;;;;;32.83;6.22;;;10.70;99.90;;;;;;4130239;28;20041;-74
2022/12/24 02:05:05;;;;;;;33.22;6.05;;;10.70;99.90;;;;;;4132224;28;20137;-74
2022/12/24 02:07:06;;;;;;;30.35;5.05;;;10.70;99.90;;;;;;4144633;28;20040;-74
2022/12/24 02:09:06;;;;;;;28.30;5.68;;;10.70;99.90;;;;;;4142632;28;20041;-74
2022/12/24 02:11:16;;;;;;;31.23;6.45;;;10.70;99.90;;;;;;4147280;28;20091;-73
2022/12/24 02:13:19;;;;;;;23.33;4.78;;;10.60;99.90;;;;;;4161214;28;20049;-74
2022/12/24 02:15:20;;;;;;;33.13;5.78;;;10.60;99.90;;;;;;4149329;28;20105;-74
2022/12/24 02:17:42;;;;;;;33.17;6.75;;;10.60;99.90;;;;;;4145819;28;20030;-75
2022/12/24 02:20:02;;;;;;;34.33;5.82;;;10.60;99.90;;;;;;4141049;28;20051;-74
2022/12/24 02:22:31;;;;;;;32.05;5.65;;;10.60;99.90;;;;;;4132600;28;20074;-74
2022/12/24 02:25:07;;;;;;;25.55;5.57;;;10.60;99.90;;;;;;4129770;28;20037;-74
2022/12/24 02:27:19;;;;;;;21.13;4.78;;;10.60;99.90;;;;;;4149708;28;20091;-73
2022/12/24 02:29:56;;;;;;;32.13;6.47;;;10.60;99.90;;;;;;4162290;28;20030;-74
2022/12/24 02:32:02;;;;;;;23.17;4.97;;;10.60;99.90;;;;;;4127852;28;20034;-74
2022/12/24 02:34:07;;;;;;;34.85;5.75;;;10.60;99.90;;;;;;4130249;28;20030;-74
2022/12/24 02:36:24;;;;;;;31.73;6.75;;;10.60;99.90;;;;;;4141578;28;20080;-74
2022/12/24 02:38:31;;;;;;;23.67;4.75;;;10.50;99.90;;;;;;4141477;28;20022;-74
2022/12/24 02:40:39;;;;;;;26.05;4.88;;;10.60;99.90;;;;;;4139482;28;20043;-74
2022/12/24 02:42:44;;;;;;;21.92;4.47;;;10.50;99.90;;;;;;4162013;28;20037;-74
2022/12/24 02:44:54;;;;;;;29.55;4.93;;;10.60;99.90;;;;;;4161671;28;20144;-74
2022/12/24 02:46:57;;;;;;;31.70;5.55;;;10.60;99.90;;;;;;4143344;28;20064;-74
2022/12/24 02:48:59;;;;;;;22.88;5.32;;;10.60;99.90;;;;;;4145996;28;20034;-74
2022/12/24 02:51:06;;;;;;;27.50;5.45;;;10.60;99.90;;;;;;4142705;28;20034;-74
2022/12/24 02:53:09;;;;;;;38.92;5.88;;;10.50;99.90;;;;;;4142367;28;20117;-72
2022/12/24 02:55:21;;;;;;;23.60;4.55;;;10.50;99.90;;;;;;4148892;28;20034;-74
2022/12/24 02:57:42;;;;;;;23.98;5.32;;;10.50;99.90;;;;;;4145222;28;20038;-74
2022/12/24 02:59:48;;;;;;;37.65;5.10;;;10.50;99.90;;;;;;4144845;28;20040;-74
2022/12/24 03:02:01;;;;;;;25.23;5.25;;;10.50;99.90;;;;;;4144772;28;20088;-74
2022/12/24 03:04:39;;;;;;;23.93;4.57;;;10.40;99.90;;;;;;4134347;28;20018;-74
2022/12/24 03:07:05;;;;;;;25.55;5.13;;;10.50;99.90;;;;;;4139119;28;20319;-73
2022/12/24 03:09:24;;;;;;;23.85;4.65;;;10.40;99.90;;;;;;4143408;28;20550;-74
2022/12/24 03:11:25;;;;;;;17.45;3.65;;;10.50;99.90;;;;;;4143423;28;20504;-73
2022/12/24 03:13:27;;;;;;;20.52;4.75;;;10.50;99.90;;;;;;4147047;28;20044;-73
2022/12/24 03:15:30;;;;;;;26.73;5.20;;;10.40;99.90;;;;;;4156372;28;20125;-74
2022/12/24 03:17:35;;;;;;;21.13;4.75;;;10.40;99.90;;;;;;4145323;28;20080;-73
2022/12/24 03:19:38;;;;;;;18.17;4.18;;;10.50;99.90;;;;;;4139717;28;20038;-74
2022/12/24 03:21:41;;;;;;;27.83;5.78;;;10.50;99.90;;;;;;4145898;28;20113;-74
2022/12/24 03:23:42;;;;;;;20.45;4.60;;;10.40;99.90;;;;;;4146199;28;20054;-73
2022/12/24 03:25:43;;;;;;;18.83;4.05;;;10.50;99.90;;;;;;4144060;28;21100;-74
2022/12/24 03:27:45;;;;;;;19.98;4.05;;;10.50;99.90;;;;;;4145095;28;20056;-74
2022/12/24 03:29:46;;;;;;;21.45;4.22;;;10.50;99.90;;;;;;4142265;28;20496;-75
2022/12/24 03:31:50;;;;;;;14.45;3.83;;;10.50;99.90;;;;;;4138200;28;20026;-74
2022/12/24 03:33:50;;;;;;;17.33;4.78;;;10.50;99.90;;;;;;4144488;28;20054;-74
2022/12/24 03:35:51;;;;;;;19.50;4.15;;;10.50;99.90;;;;;;4143840;28;20037;-74
2022/12/24 03:37:51;;;;;;;17.48;4.22;;;10.50;99.90;;;;;;4144351;28;20026;-74
2022/12/24 03:39:52;;;;;;;22.92;5.22;;;10.50;99.90;;;;;;4150766;28;20041;-74
2022/12/24 03:41:53;;;;;;;21.63;4.43;;;10.60;99.90;;;;;;4144349;28;20037;-74
2022/12/24 03:43:53;;;;;;;23.25;4.82;;;10.60;99.90;;;;;;4142688;28;20080;-73
2022/12/24 03:45:54;;;;;;;17.50;3.97;;;10.60;99.90;;;;;;4142559;28;20036;-73
2022/12/24 03:47:54;;;;;;;19.90;4.20;;;10.60;99.90;;;;;;4144844;28;20026;-74
2022/12/24 03:49:55;;;;;;;27.05;4.68;;;10.60;99.90;;;;;;4138087;28;20034;-74
2022/12/24 03:51:56;;;;;;;19.52;4.40;;;10.60;99.90;;;;;;4144040;28;20121;-74
2022/12/24 03:53:57;;;;;;;22.95;4.40;;;10.60;99.90;;;;;;4145557;28;20536;-73
2022/12/24 03:55:57;;;;;;;20.90;4.10;;;10.70;99.90;;;;;;4153233;28;20038;-73
2022/12/24 03:57:58;;;;;;;20.75;4.53;;;10.70;99.90;;;;;;4144977;28;20034;-74
2022/12/24 03:59:58;;;;;;;20.25;3.88;;;10.70;99.90;;;;;;4144081;28;20068;-74
2022/12/24 04:01:59;;;;;;;25.88;4.43;;;10.70;99.90;;;;;;4137965;28;20034;-74
2022/12/24 04:04:00;;;;;;;26.42;5.18;;;10.70;99.90;;;;;;4141642;28;20440;-74
2022/12/24 04:06:09;;;;;;;15.85;4.07;;;10.70;99.90;;;;;;4143525;28;20053;-74
2022/12/24 04:08:09;;;;;;;27.27;5.05;;;10.70;99.90;;;;;;4143236;28;20481;-74
2022/12/24 04:10:11;;;;;;;22.48;4.95;;;10.80;99.90;;;;;;4142615;28;20037;-74
2022/12/24 04:12:11;;;;;;;19.65;3.80;;;10.80;99.90;;;;;;4144232;28;20077;-74
2022/12/24 04:14:12;;;;;;;21.90;5.10;;;10.80;99.90;;;;;;4143220;28;20037;-74
2022/12/24 04:16:15;;;;;;;16.60;3.78;;;10.80;99.90;;;;;;4141495;28;20026;-74
2022/12/24 04:18:15;;;;;;;;;;;10.80;99.90;;;;;;4145084;28;20030;-74
2022/12/24 04:20:16;;;;;;;20.23;4.35;;;10.80;99.90;;;;;;4142733;28;19920;-74
2022/12/24 04:22:16;;;;;;;18.38;4.10;;;10.80;99.90;;;;;;4144082;28;20046;-73
2022/12/24 04:24:17;;;;;;;16.02;3.70;;;10.80;99.90;;;;;;4140048;28;20066;-74
2022/12/24 04:26:18;;;;;;;19.40;4.47;;;10.80;99.90;;;;;;4142373;28;20037;-74
2022/12/24 04:28:18;;;;;;;18.95;3.63;;;10.80;99.90;;;;;;4144246;28;20400;-74
2022/12/24 04:30:19;;;;;;;22.20;4.38;;;10.80;99.90;;;;;;4141182;28;20384;-74
2022/12/24 04:32:19;;;;;;;17.83;4.15;;;10.80;99.90;;;;;;4145843;28;20022;-74
2022/12/24 04:34:20;;;;;;;15.48;4.03;;;10.80;99.90;;;;;;4146437;28;20061;-74
2022/12/24 04:36:21;;;;;;;20.63;3.70;;;10.80;99.90;;;;;;4146216;28;20030;-74
2022/12/24 04:38:21;;;;;;;14.93;3.75;;;10.80;99.90;;;;;;4146959;28;20034;-74
2022/12/24 04:40:22;;;;;;;17.05;4.10;;;10.90;99.90;;;;;;4145003;28;20052;-74
2022/12/24 04:42:23;;;;;;;12.82;3.42;;;10.80;99.90;;;;;;4146415;28;20026;-74
2022/12/24 04:44:23;;;;;;;18.35;4.38;;;10.80;99.90;;;;;;4146747;28;20576;-74
2022/12/24 04:46:29;;;;;;;17.40;3.67;;;10.90;99.90;;;;;;4144480;28;20405;-70
2022/12/24 04:48:29;;;;;;;18.95;3.63;;;10.80;99.90;;;;;;4144779;28;20038;-74
2022/12/24 04:50:30;;;;;;;16.55;3.92;;;10.90;99.90;;;;;;4145912;28;20049;-74
2022/12/24 04:52:30;;;;;;;19.95;4.15;;;10.90;99.90;;;;;;4146180;28;20057;-74
2022/12/24 04:54:31;;;;;;;11.43;3.10;;;10.90;99.90;;;;;;4148178;28;20084;-74
2022/12/24 04:56:32;;;;;;;15.55;3.78;;;10.90;99.90;;;;;;4145165;28;20110;-73
2022/12/24 04:58:32;;;;;;;15.25;3.50;;;10.90;99.90;;;;;;4146624;28;20033;-74
2022/12/24 05:00:33;;;;;;;16.17;3.22;;;10.90;99.90;;;;;;4142458;28;20034;-74
2022/12/24 05:02:33;;;;;;;14.77;3.45;;;10.90;99.90;;;;;;4145444;28;20493;-73
2022/12/24 05:04:34;;;;;;;20.85;3.63;;;10.90;99.90;;;;;;4145777;28;20539;-74
2022/12/24 05:06:35;;;;;;;14.82;3.28;;;10.90;99.90;;;;;;4147531;28;20038;-75
2022/12/24 05:08:37;;;;;;;14.60;3.33;;;10.90;99.90;;;;;;4143098;28;20045;-73
2022/12/24 05:10:37;;;;;;;16.63;3.42;;;10.90;99.90;;;;;;4142798;28;20044;-69
2022/12/24 05:12:38;;;;;;;15.63;3.88;;;10.90;99.90;;;;;;4145196;28;20392;-73
2022/12/24 05:14:39;;;;;;;18.63;3.75;;;10.90;99.90;;;;;;4146616;28;20030;-74
2022/12/24 05:16:39;;;;;;;16.95;3.88;;;10.90;99.90;;;;;;4144525;28;20367;-74
2022/12/24 05:18:40;;;;;;;14.18;3.50;;;10.90;99.90;;;;;;4144288;28;20030;-73
2022/12/24 05:20:41;;;;;;;18.25;4.38;;;10.90;99.90;;;;;;4141320;28;20042;-73
2022/12/24 05:27:21;;;;;;;15.65;3.75;;;10.90;99.90;;;;;;4143400;28;20038;-74
2022/12/24 05:29:21;;;;;;;15.82;3.58;;;10.90;99.90;;;;;;4146269;28;20032;-74
2022/12/24 05:31:23;;;;;;;14.57;3.25;;;10.90;99.90;;;;;;4144130;28;20532;-74
2022/12/24 05:33:24;;;;;;;18.73;3.42;;;10.90;99.90;;;;;;4176891;28;21053;-74
2022/12/24 05:35:24;;;;;;;18.15;4.35;;;10.90;99.90;;;;;;4144569;28;20034;-75
2022/12/24 05:37:25;;;;;;;24.33;4.80;;;10.90;99.90;;;;;;4144599;28;20116;-73
2022/12/24 05:39:26;;;;;;;17.23;3.58;;;10.90;99.90;;;;;;4146633;28;20041;-73
2022/12/24 05:41:26;;;;;;;22.90;4.30;;;10.90;99.90;;;;;;4141842;28;20034;-74
2022/12/24 05:43:27;;;;;;;16.73;3.08;;;10.90;99.90;;;;;;4145347;28;20034;-74
2022/12/24 05:45:27;;;;;;;16.70;4.22;;;10.90;99.90;;;;;;4146342;28;20038;-74
2022/12/24 05:47:28;;;;;;;15.10;3.55;;;10.90;99.90;;;;;;4145914;28;20099;-74
2022/12/24 05:49:29;;;;;;;17.05;3.80;;;10.90;99.90;;;;;;4144336;28;20354;-75
2022/12/24 05:51:30;;;;;;;16.92;3.45;;;10.90;99.90;;;;;;4144248;28;20036;-74
2022/12/24 05:53:31;;;;;;;18.65;3.55;;;10.90;99.90;;;;;;4148210;28;20104;-74
2022/12/24 05:55:32;;;;;;;24.38;3.65;;;10.90;99.90;;;;;;4144844;28;20037;-74
2022/12/24 05:57:33;;;;;;;19.85;3.60;;;10.90;99.90;;;;;;4146207;28;20057;-74
2022/12/24 05:59:34;;;;;;;12.38;3.13;;;10.90;99.90;;;;;;4147252;28;20388;-74
2022/12/24 06:01:34;;;;;;;15.45;3.40;;;10.90;99.90;;;;;;4144050;28;20373;-74
2022/12/24 06:03:35;;;;;;;16.10;3.60;;;10.90;99.90;;;;;;4144675;28;20473;-74
2022/12/24 06:05:36;;;;;;;25.27;4.43;;;10.90;99.90;;;;;;4147427;28;20034;-74
2022/12/24 06:07:37;;;;;;;19.33;4.18;;;10.90;99.90;;;;;;4143867;28;20110;-74
2022/12/24 06:09:37;;;;;;;15.02;3.95;;;10.90;99.90;;;;;;4144525;28;20033;-74
2022/12/24 06:11:38;;;;;;;18.65;3.63;;;10.80;99.90;;;;;;4143692;28;20045;-69
2022/12/24 06:13:40;;;;;;;16.90;3.47;;;10.90;99.90;;;;;;4145799;28;20038;-73
2022/12/24 06:15:40;;;;;;;13.43;2.78;;;10.90;99.90;;;;;;4149118;28;20041;-74
2022/12/24 06:17:41;;;;;;;12.02;3.40;;;10.90;99.90;;;;;;4150395;28;20488;-73
2022/12/24 06:19:41;;;;;;;15.90;3.75;;;10.90;99.90;;;;;;4156767;28;20501;-74
2022/12/24 06:21:42;;;;;;;13.63;3.17;;;10.80;99.90;;;;;;4133121;28;20035;-74
2022/12/24 06:23:44;;;;;;;21.10;4.03;;;10.80;99.90;;;;;;4140929;28;20103;-74
2022/12/24 06:25:45;;;;;;;23.48;3.83;;;10.80;99.90;;;;;;4143907;28;20164;-74
2022/12/24 06:27:45;;;;;;;18.02;4.25;;;10.80;99.90;;;;;;4144087;28;20113;-74
2022/12/24 06:29:46;;;;;;;20.20;3.58;;;10.80;99.90;;;;;;4153298;28;20033;-75
2022/12/24 06:31:46;;;;;;;17.15;3.92;;;10.80;99.90;;;;;;4137022;28;20030;-75
2022/12/24 06:33:47;;;;;;;16.33;3.55;;;10.80;99.90;;;;;;4146140;28;20037;-74
2022/12/24 06:35:48;;;;;;;12.95;3.40;;;10.80;99.90;;;;;;4148806;28;20030;-74
2022/12/24 06:37:48;;;;;;;19.05;4.05;;;10.80;99.90;;;;;;4159177;28;20523;-74
2022/12/24 06:39:49;;;;;;;12.93;3.55;;;10.80;99.90;;;;;;4151720;28;20357;-74
2022/12/24 06:41:50;;;;;;;25.45;4.97;;;10.80;99.90;;;;;;4145180;28;20401;-74
2022/12/24 06:43:52;;;;;;;17.90;3.97;;;10.80;99.90;;;;;;4146662;28;20040;-74
2022/12/24 06:45:52;;;;;;;24.25;4.07;;;10.80;99.90;;;;;;4153686;28;20034;-74
2022/12/24 06:47:53;;;;;;;18.33;3.72;;;10.80;99.90;;;;;;4145261;28;20029;-75
2022/12/24 06:49:53;;;;;;;16.45;3.70;;;10.80;99.90;;;;;;4147966;28;20034;-75
2022/12/24 06:51:54;;;;;;;23.35;4.90;;;10.80;99.90;;;;;;4144060;28;20034;-74
2022/12/24 06:53:54;;;;;;;16.13;3.95;;;10.80;99.90;;;;;;4145123;28;20042;-75
2022/12/24 06:56:02;;;;;;;18.83;4.40;;;10.90;99.90;;;;;;4145556;28;20033;-75
2022/12/24 06:58:03;;;;;;;22.80;4.25;;;10.90;99.90;;;;;;4144178;28;20103;-74
2022/12/24 07:00:05;;;;;;;20.40;3.92;;;10.90;99.90;;;;;;4142614;28;20041;-75
2022/12/24 07:02:05;;;;;;;16.63;3.80;;;10.80;99.90;;;;;;4148609;28;20037;-74
2022/12/24 07:04:06;;;;;;;21.45;3.75;;;10.80;99.90;;;;;;4147176;28;20025;-75
2022/12/24 07:06:15;;;;;;;18.92;3.92;;;10.90;99.90;;;;;;4144588;28;20041;-75
2022/12/24 07:08:15;;;;;;;16.52;3.88;;;10.90;99.90;;;;;;4144999;28;20030;-75
2022/12/24 07:10:17;;;;;;;21.77;4.78;;;10.80;99.90;;;;;;4143313;28;20343;-75
2022/12/24 07:12:18;;;;;;;17.70;3.63;;;10.80;99.90;;;;;;4145161;28;20132;-74
2022/12/24 07:14:18;;;;;;;26.15;4.72;;;10.80;99.90;;;;;;4146487;28;20405;-75
2022/12/24 07:16:19;;;;;;;20.88;4.18;;;10.80;99.90;;;;;;4143231;28;20037;-74
2022/12/24 07:18:20;;;;;;;15.02;4.10;;;10.80;99.90;;;;;;4145261;28;20030;-74
2022/12/24 07:20:20;;;;;;;19.67;4.57;;;10.80;99.90;;;;;;4146832;28;20038;-75
2022/12/24 07:22:21;;;;;;;14.82;3.83;;;10.80;99.90;;;;;;4149340;28;20041;-73
2022/12/24 07:24:21;;;;;;;22.85;4.47;;;10.80;99.90;;;;;;4154145;28;20030;-73
2022/12/24 07:26:22;;;;;;;17.65;3.95;;;10.80;99.90;;;;;;4145490;28;20091;-73
2022/12/24 07:28:22;;;;;;;23.80;4.50;;;10.80;99.90;;;;;;4148591;28;20096;-74
2022/12/24 07:30:23;;;;;;;25.40;4.43;;;10.80;99.90;;;;;;4149645;28;20052;-74
2022/12/24 07:32:24;;;;;;;21.08;4.57;;;10.80;99.90;;;;;;4144522;28;20040;-73
2022/12/24 07:34:24;;;;;;;13.23;3.47;;;10.80;99.90;;;;;;4146275;28;20506;-74
2022/12/24 07:36:27;;;;;;;22.73;4.35;;;10.80;99.90;;;;;;4143163;28;20064;-74
2022/12/24 07:38:28;;;;;;;25.52;4.63;;;10.80;99.90;;;;;;4146350;28;20034;-73
2022/12/24 07:40:29;;;;;;;20.13;4.63;;;10.80;99.90;;;;;;4138293;28;20038;-74
2022/12/24 07:42:29;;;;;;;16.23;3.90;;;10.70;99.90;;;;;;4140671;28;20314;-74
2022/12/24 07:44:30;;;;;;;21.85;4.63;;;10.70;99.90;;;;;;4144958;28;20030;-74
2022/12/24 07:46:30;;;;;;;25.40;5.20;;;10.70;99.90;;;;;;4140255;28;20091;-74
2022/12/24 07:48:31;;;;;;;21.23;4.10;;;10.70;99.90;;;;;;4141475;28;20040;-73
2022/12/24 07:50:32;;;;;;;14.93;3.45;;;10.70;99.90;;;;;;4139423;28;20099;-74
2022/12/24 07:52:32;;;;;;;13.55;3.42;;;10.70;99.90;;;;;;4152864;28;20104;-74
2022/12/24 07:54:33;;;;;;;22.52;4.97;;;10.70;99.90;;;;;;4148276;28;20033;-74
2022/12/24 07:56:34;;;;;;;20.58;4.30;;;10.70;99.90;;;;;;4144335;28;20614;-73
2022/12/24 07:58:34;;;;;;;24.60;5.13;;;10.80;99.90;;;;;;4170240;28;20175;-74
2022/12/24 08:00:35;;;;;;;23.67;4.55;;;10.70;99.90;;;;;;4142765;28;20068;-74
2022/12/24 08:02:36;;;;;;;18.08;3.95;;;10.80;99.90;;;;;;4161352;28;20034;-73
2022/12/24 08:04:37;;;;;;;23.45;5.00;;;10.80;99.90;;;;;;4154431;28;20646;-74
2022/12/24 08:06:38;;;;;;;17.10;4.13;;;10.80;99.90;;;;;;4151564;28;20041;-73
2022/12/24 08:08:39;;;;;;;22.40;4.40;;;10.80;99.90;;;;;;4146424;28;20037;-73
2022/12/24 08:10:41;;;;;;;18.20;4.15;;;10.80;99.90;;;;;;4147199;28;20052;-74
2022/12/24 08:12:41;;;;;;;22.37;4.20;;;10.80;99.90;;;;;;4147741;28;20052;-73
2022/12/24 08:14:42;;;;;;;25.52;4.60;;;10.80;99.90;;;;;;4148015;28;20057;-73
2022/12/24 08:16:42;;;;;;;19.42;4.13;;;10.80;99.90;;;;;;4145686;28;20099;-73
2022/12/24 08:18:43;;;;;;;20.38;4.40;;;10.80;99.90;;;;;;4144170;28;20491;-73
2022/12/24 08:20:43;;;;;;;23.13;4.47;;;10.80;99.90;;;;;;4143564;28;20198;-73
2022/12/24 08:22:44;;;;;;;22.15;4.45;;;10.80;99.90;;;;;;4154417;28;20451;-72
2022/12/24 08:24:45;;;;;;;24.20;5.15;;;10.80;99.90;;;;;;4144234;28;20041;-73
2022/12/24 08:26:45;;;;;;;24.88;5.13;;;10.80;99.90;;;;;;4133055;28;20046;-73
2022/12/24 08:28:46;;;;;;;15.48;3.67;;;10.80;99.90;;;;;;4131170;28;20045;-73
2022/12/24 08:30:48;;;;;;;21.70;4.28;;;10.80;99.90;;;;;;4139219;28;20062;-73
2022/12/24 08:32:49;;;;;;;19.73;4.82;;;10.80;99.90;;;;;;4133485;28;20088;-73
2022/12/24 08:34:49;;;;;;;23.40;4.72;;;10.80;99.90;;;;;;4145360;28;20490;-74
2022/12/24 08:36:50;;;;;;;21.98;4.78;;;10.80;99.90;;;;;;4132199;28;20489;-74
2022/12/24 08:38:50;;;;;;;20.58;4.95;;;10.80;99.90;;;;;;4144141;28;20039;-73
2022/12/24 08:40:53;;;;;;;21.63;4.15;;;10.80;99.90;;;;;;4142184;28;20057;-74
2022/12/24 08:42:53;;;;;;;23.55;4.95;;;10.80;99.90;;;;;;4147688;28;20450;-74
2022/12/24 08:44:54;;;;;;;18.55;3.78;;;10.80;99.90;;;;;;4146188;28;20034;-73
2022/12/24 08:46:54;;;;;;;29.73;5.72;;;10.80;99.90;;;;;;4144005;28;20030;-74
2022/12/24 08:48:55;;;;;;;16.00;4.30;;;10.80;99.90;;;;;;4147524;28;20025;-74
2022/12/24 08:50:55;;;;;;;24.13;4.75;;;10.80;99.90;;;;;;4148192;28;20060;-74
2022/12/24 08:52:56;;;;;;;30.70;6.80;;;10.80;99.90;;;;;;4147269;28;20029;-74
2022/12/24 08:54:57;;;;;;;36.28;5.72;;;10.80;99.90;;;;;;4143063;28;20064;-74
2022/12/24 08:56:57;;;;;;;23.58;4.88;;;10.80;99.90;;;;;;4134017;28;20037;-74
2022/12/24 08:58:58;;;;;;;18.70;4.57;;;10.80;99.90;;;;;;4147638;28;20045;-70
2022/12/24 09:00:59;;;;;;;24.77;5.18;;;10.80;99.90;;;;;;4143212;28;20041;-73
2022/12/24 09:03:00;;;;;;;21.30;4.53;;;10.80;99.90;;;;;;4148206;28;20034;-74
2022/12/24 09:05:00;;;;;;;17.52;3.92;;;10.90;99.90;;;;;;4146296;28;20523;-73
2022/12/24 09:07:01;;;;;;;26.77;4.82;;;10.90;99.90;;;;;;4144732;28;21041;-74
2022/12/24 09:09:03;;;;;;;16.02;4.35;;;10.90;99.90;;;;;;4145953;28;20038;-74
2022/12/24 09:11:13;;;;;;;24.10;4.28;;;10.90;99.90;;;;;;4141739;28;20033;-74
2022/12/24 09:13:14;;;;;;;17.90;4.25;;;11.00;99.90;;;;;;4145176;28;20049;-74
2022/12/24 09:15:14;;;;;;;16.92;3.92;;;11.00;99.90;;;;;;4144404;28;20033;-74
2022/12/24 09:17:15;;;;;;;15.18;4.30;;;11.00;99.90;;;;;;4140615;28;20389;-74
2022/12/24 09:19:15;;;;;;;23.08;4.60;;;11.00;99.90;;;;;;4145772;28;20034;-74
2022/12/24 09:21:17;;;;;;;23.65;4.93;;;11.00;99.90;;;;;;4142219;28;20034;-74
2022/12/24 09:23:18;;;;;;;15.50;4.27;;;11.00;99.90;;;;;;4138708;28;20119;-74
2022/12/24 09:25:18;;;;;;;27.48;5.50;;;11.00;99.90;;;;;;4141261;28;20544;-74
2022/12/24 09:27:19;;;;;;;23.95;4.55;;;11.10;99.90;;;;;;4139142;28;20496;-74
2022/12/24 09:29:19;;;;;;;32.13;5.97;;;11.00;99.90;;;;;;4146704;28;20045;-74
2022/12/24 09:31:20;;;;;;;21.33;4.68;;;11.00;99.90;;;;;;4140754;28;20044;-75
2022/12/24 09:33:21;;;;;;;26.38;4.95;;;11.00;99.90;;;;;;4144862;28;20564;-74
2022/12/24 09:35:21;;;;;;;24.40;5.10;;;11.10;99.90;;;;;;4143078;28;20200;-74
2022/12/24 09:37:22;;;;;;;25.00;5.18;;;11.10;99.90;;;;;;4142496;28;20037;-73
2022/12/24 09:39:23;;;;;;;27.20;5.43;;;11.20;99.90;;;;;;4146496;28;20033;-74
2022/12/24 09:41:42;;;;;;;24.23;4.47;;;11.20;99.90;;;;;;4143377;28;20057;-74
2022/12/24 09:43:48;;;;;;;28.85;5.05;;;11.20;99.90;;;;;;4145406;28;20045;-70
2022/12/24 09:45:59;;;;;;;16.20;4.57;;;11.30;99.90;;;;;;4141466;28;20038;-74
2022/12/24 09:48:12;;;;;;;18.83;4.10;;;11.30;99.90;;;;;;4144019;28;20038;-74
2022/12/24 09:50:44;;;;;;;24.52;5.63;;;11.30;99.90;;;;;;4142003;28;20038;-73
2022/12/24 09:52:47;;;;;;;17.40;4.80;;;11.30;99.90;;;;;;4150580;28;20038;-74
2022/12/24 09:55:02;;;;;;;23.80;5.25;;;11.30;99.90;;;;;;4148579;28;20059;-74
2022/12/24 09:57:26;;;;;;;25.40;5.00;;;11.40;99.90;;;;;;4149434;28;20038;-75
2022/12/24 09:59:48;;;;;;;21.02;4.40;;;11.40;99.90;;;;;;4150318;28;20034;-74
2022/12/24 10:01:52;;;;;;;26.13;4.93;;;11.40;99.90;;;;;;4150018;28;20125;-74
2022/12/24 10:03:53;;;;;;;18.20;4.53;;;11.40;99.90;;;;;;4152739;28;20030;-74
2022/12/24 10:06:11;;;;;;;30.83;5.90;;;11.40;99.90;;;;;;4151711;28;20113;-76
2022/12/24 10:08:25;;;;;;;23.77;5.25;;;11.40;99.90;;;;;;4153374;28;20053;-74
2022/12/24 10:10:32;;;;;;;34.05;5.10;;;11.40;99.90;;;;;;4150057;28;20030;-74
2022/12/24 10:13:00;;;;;;;23.98;5.30;;;11.40;99.90;;;;;;4152939;28;20046;-74
2022/12/24 10:15:19;;;;;;;26.02;5.00;;;11.40;99.90;;;;;;4150916;28;20034;-75
2022/12/24 10:17:41;;;;;;;19.45;4.97;;;11.40;99.90;;;;;;4151055;28;20026;-75
2022/12/24 10:19:57;;;;;;;28.05;5.13;;;11.40;99.90;;;;;;4151968;28;20041;-74
2022/12/24 10:22:22;;;;;;;20.25;4.65;;;11.40;99.90;;;;;;4148508;28;20489;-75
2022/12/24 10:24:48;;;;;;;25.30;4.90;;;11.40;99.90;;;;;;4147044;28;20056;-75
2022/12/24 10:27:00;;;;;;;26.63;5.13;;;11.40;99.90;;;;;;4142440;28;20555;-75
2022/12/24 10:29:26;;;;;;;27.08;4.82;;;11.40;99.90;;;;;;4142877;28;20038;-74
2022/12/24 10:31:33;;;;;;;27.00;5.38;;;11.40;99.90;;;;;;4122871;28;20035;-75
2022/12/24 10:33:42;;;;;;;18.00;4.13;;;11.50;99.90;;;;;;4141477;28;20073;-75
2022/12/24 10:35:47;;;;;;;25.25;5.57;;;11.50;99.90;;;;;;4142249;28;20455;-75
2022/12/24 10:37:50;;;;;;;27.35;5.25;;;11.50;99.90;;;;;;4144850;28;20029;-75
2022/12/24 10:39:51;;;;;;;28.15;6.10;;;11.60;99.90;;;;;;4143938;28;20337;-75
2022/12/24 10:41:56;;;;;;;19.55;4.15;;;11.60;99.90;;;;;;4139752;28;20136;-75